createdAt,value
2022-08-02T00:00:35.223Z,6.00
2022-08-02T00:03:07.936Z,6.07
2022-08-02T00:05:35.069Z,5.97
2022-08-02T00:08:02.015Z,5.65
2022-08-02T00:10:29.112Z,6.25
2022-08-02T00:12:57.965Z,5.90
2022-08-02T00:15:25.140Z,6.90
2022-08-02T00:17:52.058Z,6.85
2022-08-02T00:20:19.490Z,6.47
2022-08-02T00:22:46.419Z,6.25
2022-08-02T00:25:13.338Z,7.20
2022-08-02T00:27:40.543Z,8.25
2022-08-02T00:30:07.977Z,8.60
2022-08-02T00:32:34.964Z,8.40
2022-08-02T00:35:02.062Z,7.80
2022-08-02T00:37:28.990Z,7.35
2022-08-02T00:39:57.422Z,7.68
2022-08-02T00:42:24.618Z,8.02
2022-08-02T00:44:51.608Z,7.25
2022-08-02T00:47:19.443Z,6.85
2022-08-02T00:49:47.462Z,6.82
2022-08-02T00:52:14.814Z,7.47
2022-08-02T00:54:42.003Z,6.95
2022-08-02T00:57:09.248Z,7.60
2022-08-02T00:59:36.259Z,7.78
2022-08-02T01:02:03.194Z,7.85
2022-08-02T01:04:32.237Z,7.85
2022-08-02T01:07:01.224Z,7.82
2022-08-02T01:09:28.459Z,7.15
2022-08-02T01:11:56.229Z,7.75
2022-08-02T01:14:24.911Z,8.40
2022-08-02T01:17:28.972Z,7.95
2022-08-02T01:20:04.891Z,8.00
2022-08-02T01:23:02.142Z,8.02
2022-08-02T01:25:46.778Z,7.80
2022-08-02T01:28:19.636Z,8.63
2022-08-02T01:30:50.467Z,8.10
2022-08-02T01:33:21.055Z,7.87
2022-08-02T01:35:54.234Z,8.10
2022-08-02T01:38:27.651Z,9.10
2022-08-02T01:40:56.549Z,9.23
2022-08-02T01:43:25.704Z,9.93
2022-08-02T01:45:54.062Z,9.48
2022-08-02T01:48:23.347Z,10.85
2022-08-02T01:50:51.968Z,10.15
2022-08-02T01:53:22.205Z,10.63
2022-08-02T01:55:58.358Z,9.90
2022-08-02T01:58:30.096Z,10.57
2022-08-02T02:00:59.481Z,9.65
2022-08-02T02:03:29.075Z,10.98
2022-08-02T02:05:59.100Z,10.30
2022-08-02T02:08:32.907Z,9.30
2022-08-02T02:12:11.815Z,10.40
2022-08-02T02:13:50.302Z,9.63
2022-08-02T02:16:19.593Z,10.73
2022-08-02T02:18:48.939Z,10.00
2022-08-02T02:21:16.708Z,9.35
2022-08-02T02:23:43.715Z,8.85
2022-08-02T02:26:13.725Z,9.52
2022-08-02T02:28:43.383Z,9.90
2022-08-02T02:31:14.073Z,10.07
2022-08-02T02:33:48.754Z,9.40
2022-08-02T02:36:17.812Z,8.93
2022-08-02T02:38:46.353Z,9.60
2022-08-02T02:41:14.600Z,10.23
2022-08-02T02:43:43.729Z,9.80
2022-08-02T02:46:12.705Z,10.48
2022-08-02T02:48:40.655Z,10.13
2022-08-02T02:51:14.085Z,9.45
2022-08-02T02:54:32.531Z,10.27
2022-08-02T02:56:30.799Z,10.73
2022-08-02T02:59:00.770Z,10.85
2022-08-02T03:01:55.418Z,11.27
2022-08-02T03:04:16.123Z,11.48
2022-08-02T03:06:43.241Z,11.35
2022-08-02T03:09:11.608Z,11.15
2022-08-02T03:11:40.716Z,11.40
2022-08-02T03:14:11.119Z,11.23
2022-08-02T03:16:50.475Z,11.32
2022-08-02T03:19:18.779Z,10.77
2022-08-02T03:21:47.174Z,10.93
2022-08-02T03:24:14.689Z,10.57
2022-08-02T03:26:42.045Z,9.82
2022-08-02T03:29:09.963Z,9.13
2022-08-02T03:31:41.835Z,9.00
2022-08-02T03:34:10.053Z,9.93
2022-08-02T03:36:39.151Z,9.82
2022-08-02T03:39:07.535Z,8.75
2022-08-02T03:41:36.955Z,9.07
2022-08-02T03:44:04.827Z,9.98
2022-08-02T03:46:32.458Z,10.88
2022-08-02T03:49:00.544Z,10.57
2022-08-02T03:51:27.777Z,11.27
2022-08-02T03:53:55.865Z,10.07
2022-08-02T03:56:23.613Z,11.15
2022-08-02T03:58:50.719Z,10.05
2022-08-02T04:01:17.667Z,10.98
2022-08-02T04:03:44.846Z,10.20
2022-08-02T04:06:11.726Z,8.88
2022-08-02T04:08:39.077Z,8.82
2022-08-02T04:11:25.662Z,9.40
2022-08-02T04:13:54.726Z,8.40
2022-08-02T04:16:32.238Z,9.80
2022-08-02T04:19:02.737Z,9.27
2022-08-02T04:21:49.955Z,8.38
2022-08-02T04:24:24.599Z,8.63
2022-08-02T04:27:03.427Z,8.38
2022-08-02T04:29:35.236Z,8.68
2022-08-02T04:32:03.684Z,7.20
2022-08-02T04:34:31.367Z,6.90
2022-08-02T04:36:59.831Z,6.97
2022-08-02T04:39:28.053Z,7.25
2022-08-02T04:41:57.720Z,6.13
2022-08-02T04:44:25.270Z,6.90
2022-08-02T04:46:52.866Z,5.95
2022-08-02T04:49:19.953Z,5.68
2022-08-02T04:51:47.063Z,5.40
2022-08-02T04:54:14.217Z,5.40
2022-08-02T04:56:41.390Z,4.10
2022-08-02T04:59:08.817Z,4.68
2022-08-02T05:01:36.057Z,4.50
2022-08-02T05:04:03.156Z,3.80
2022-08-02T05:06:30.044Z,3.53
2022-08-02T05:08:57.193Z,3.50
2022-08-02T05:11:36.037Z,3.47
2022-08-02T05:14:05.444Z,3.47
2022-08-02T05:16:32.660Z,3.33
2022-08-02T05:19:00.947Z,3.35
2022-08-02T05:21:28.598Z,3.08
2022-08-02T05:23:55.486Z,3.00
2022-08-02T05:26:23.625Z,3.70
2022-08-02T05:28:50.784Z,2.83
2022-08-02T05:31:17.679Z,3.40
2022-08-02T05:33:44.571Z,3.10
2022-08-02T05:36:11.731Z,3.25
2022-08-02T05:38:38.657Z,3.05
2022-08-02T05:41:06.548Z,2.45
2022-08-02T05:43:33.858Z,3.13
2022-08-02T05:46:00.866Z,2.85
2022-08-02T05:48:31.863Z,4.30
2022-08-02T05:51:11.013Z,2.90
2022-08-02T05:53:46.415Z,2.85
2022-08-02T05:56:29.859Z,3.20
2022-08-02T05:59:18.516Z,2.35
2022-08-02T06:01:48.637Z,2.70
2022-08-02T06:04:26.418Z,2.70
2022-08-02T06:06:59.147Z,2.53
2022-08-02T06:09:27.229Z,2.53
2022-08-02T06:12:10.912Z,2.45
2022-08-02T06:14:38.055Z,2.65
2022-08-02T06:17:05.973Z,2.72
2022-08-02T06:19:46.779Z,2.45
2022-08-02T06:22:35.711Z,3.25
2022-08-02T06:25:05.511Z,2.22
2022-08-02T06:27:33.986Z,2.67
2022-08-02T06:30:02.418Z,2.17
2022-08-02T06:32:29.369Z,2.20
2022-08-02T06:34:56.702Z,2.22
2022-08-02T06:37:47.315Z,2.60
2022-08-02T06:40:43.878Z,2.20
2022-08-02T06:43:30.791Z,2.10
2022-08-02T06:46:34.444Z,2.33
2022-08-02T06:48:45.458Z,2.08
2022-08-02T06:51:13.217Z,2.00
2022-08-02T06:53:40.389Z,1.70
2022-08-02T06:56:07.341Z,1.80
2022-08-02T06:58:36.359Z,1.48
2022-08-02T07:01:07.200Z,1.85
2022-08-02T07:03:34.763Z,2.08
2022-08-02T07:06:01.998Z,2.17
2022-08-02T07:08:36.263Z,1.70
2022-08-02T07:11:04.878Z,1.63
2022-08-02T07:13:34.741Z,1.52
2022-08-02T07:16:05.534Z,1.80
2022-08-02T07:18:32.456Z,2.13
2022-08-02T07:20:59.326Z,2.22
2022-08-02T07:23:26.519Z,1.90
2022-08-02T07:26:02.680Z,2.10
2022-08-02T07:28:31.435Z,1.98
2022-08-02T07:30:58.731Z,2.00
2022-08-02T07:33:38.059Z,1.90
2022-08-02T07:36:09.623Z,1.95
2022-08-02T07:38:40.823Z,1.65
2022-08-02T07:41:08.191Z,2.20
2022-08-02T07:43:35.594Z,1.75
2022-08-02T07:46:02.554Z,2.10
2022-08-02T07:48:29.727Z,1.70
2022-08-02T07:50:57.701Z,2.03
2022-08-02T07:53:50.314Z,2.20
2022-08-02T07:56:12.561Z,1.80
2022-08-02T07:58:41.686Z,1.90
2022-08-02T08:01:09.940Z,1.75
2022-08-02T08:03:37.071Z,2.58
2022-08-02T08:06:04.108Z,2.20
2022-08-02T08:08:31.102Z,2.17
2022-08-02T08:10:58.208Z,2.03
2022-08-02T08:13:25.144Z,1.90
2022-08-02T08:15:52.718Z,2.20
2022-08-02T08:18:21.822Z,2.05
2022-08-02T08:20:48.807Z,1.90
2022-08-02T08:23:15.745Z,2.10
2022-08-02T08:25:42.847Z,2.10
2022-08-02T08:28:10.248Z,2.20
2022-08-02T08:30:37.262Z,2.10
2022-08-02T08:33:04.650Z,1.83
2022-08-02T08:35:31.703Z,2.03
2022-08-02T08:37:58.580Z,2.30
2022-08-02T08:40:26.185Z,2.35
2022-08-02T08:42:53.403Z,2.28
2022-08-02T08:45:20.325Z,1.90
2022-08-02T08:47:52.534Z,2.33
2022-08-02T08:50:25.425Z,2.47
2022-08-02T08:53:01.803Z,2.10
2022-08-02T08:55:30.469Z,2.30
2022-08-02T08:57:59.538Z,2.70
2022-08-02T09:00:27.674Z,2.10
2022-08-02T09:02:55.078Z,3.05
2022-08-02T09:05:22.347Z,2.35
2022-08-02T09:07:51.360Z,2.03
2022-08-02T09:10:47.065Z,1.92
2022-08-02T09:13:43.568Z,2.50
2022-08-02T09:16:10.929Z,2.40
2022-08-02T09:18:45.720Z,2.47
2022-08-02T09:21:15.013Z,2.30
2022-08-02T09:23:48.576Z,2.28
2022-08-02T09:26:18.675Z,2.20
2022-08-02T09:28:50.087Z,2.33
2022-08-02T09:31:23.846Z,2.05
2022-08-02T09:33:56.317Z,2.33
2022-08-02T09:36:24.470Z,1.88
2022-08-02T09:39:01.582Z,2.17
2022-08-02T09:41:35.281Z,1.55
2022-08-02T09:44:06.723Z,1.73
2022-08-02T09:46:40.354Z,1.77
2022-08-02T09:49:13.178Z,1.50
2022-08-02T09:51:50.282Z,2.10
2022-08-02T09:54:20.188Z,2.20
2022-08-02T09:56:52.508Z,1.98
2022-08-02T10:01:51.496Z,1.90
2022-08-02T10:04:52.147Z,2.05
2022-08-02T10:07:22.448Z,2.30
2022-08-02T10:09:50.888Z,3.15
2022-08-02T10:12:19.077Z,1.70
2022-08-02T10:14:46.190Z,1.90
2022-08-02T10:17:15.422Z,1.58
2022-08-02T10:20:00.508Z,2.10
2022-08-02T10:22:30.036Z,1.90
2022-08-02T10:24:57.111Z,1.63
2022-08-02T10:27:25.801Z,1.55
2022-08-02T10:29:57.776Z,1.65
2022-08-02T10:32:31.608Z,1.48
2022-08-02T10:35:18.612Z,1.98
2022-08-02T10:37:54.171Z,1.65
2022-08-02T10:40:26.222Z,2.05
2022-08-02T10:42:55.174Z,1.80
2022-08-02T10:45:23.162Z,1.60
2022-08-02T10:48:03.841Z,1.60
2022-08-02T10:50:46.319Z,1.73
2022-08-02T10:53:39.539Z,1.38
2022-08-02T10:56:09.393Z,1.50
2022-08-02T10:58:36.433Z,1.20
2022-08-02T11:01:05.624Z,1.58
2022-08-02T11:03:33.597Z,1.98
2022-08-02T11:06:25.098Z,1.55
2022-08-02T11:09:32.511Z,1.33
2022-08-02T11:12:09.325Z,1.30
2022-08-02T11:14:39.827Z,1.50
2022-08-02T11:17:14.014Z,2.55
2022-08-02T11:20:12.246Z,1.67
2022-08-02T11:22:40.527Z,1.25
2022-08-02T11:25:22.928Z,1.17
2022-08-02T11:27:58.431Z,1.35
2022-08-02T11:30:27.324Z,0.88
2022-08-02T11:32:59.096Z,1.77
2022-08-02T11:35:38.680Z,1.17
2022-08-02T11:38:20.270Z,1.20
2022-08-02T11:40:48.585Z,1.20
2022-08-02T11:43:17.784Z,1.65
2022-08-02T11:45:44.976Z,1.35
2022-08-02T11:48:12.197Z,1.35
2022-08-02T11:50:39.393Z,2.42
2022-08-02T11:53:16.476Z,1.50
2022-08-02T11:55:43.682Z,1.23
2022-08-02T11:58:11.824Z,1.50
2022-08-02T12:00:39.094Z,1.42
2022-08-02T12:03:07.629Z,1.60
2022-08-02T12:06:03.088Z,1.58
2022-08-02T12:08:25.714Z,1.77
2022-08-02T12:10:52.804Z,1.70
2022-08-02T12:13:19.812Z,1.65
2022-08-02T12:15:47.467Z,1.90
2022-08-02T12:18:35.573Z,1.90
2022-08-02T12:21:20.432Z,1.60
2022-08-02T12:23:58.771Z,1.77
2022-08-02T12:26:28.513Z,1.48
2022-08-02T12:28:59.908Z,1.40
2022-08-02T12:31:56.847Z,1.98
2022-08-02T12:34:31.885Z,1.52
2022-08-02T12:37:10.610Z,1.63
2022-08-02T12:39:43.484Z,1.75
2022-08-02T12:42:12.657Z,1.45
2022-08-02T12:45:00.829Z,1.38
2022-08-02T12:47:35.843Z,1.58
2022-08-02T12:50:12.213Z,1.02
2022-08-02T12:52:39.358Z,1.42
2022-08-02T12:55:25.823Z,1.60
2022-08-02T12:58:12.854Z,1.52
2022-08-02T13:00:40.498Z,1.40
2022-08-02T13:03:11.657Z,1.50
2022-08-02T13:05:56.959Z,1.17
2022-08-02T13:08:24.965Z,1.00
2022-08-02T13:10:51.924Z,1.30
2022-08-02T13:13:19.031Z,1.15
2022-08-02T13:15:50.256Z,1.20
2022-08-02T13:18:18.483Z,1.48
2022-08-02T13:20:45.979Z,1.13
2022-08-02T13:23:21.502Z,1.10
2022-08-02T13:25:52.818Z,1.40
2022-08-02T13:28:20.332Z,0.90
2022-08-02T13:30:47.744Z,0.98
2022-08-02T13:33:15.964Z,1.00
2022-08-02T13:35:44.324Z,1.08
2022-08-02T13:38:11.367Z,1.40
2022-08-02T13:41:04.356Z,1.08
2022-08-02T13:43:52.855Z,1.15
2022-08-02T13:46:29.061Z,1.48
2022-08-02T13:48:56.941Z,1.10
2022-08-02T13:51:24.183Z,0.93
2022-08-02T13:53:51.136Z,1.50
2022-08-02T13:56:18.076Z,1.05
2022-08-02T13:58:45.265Z,1.20
2022-08-02T14:01:12.215Z,1.00
2022-08-02T14:04:07.348Z,1.20
2022-08-02T14:06:26.575Z,1.00
2022-08-02T14:08:53.631Z,1.00
2022-08-02T14:11:20.603Z,0.80
2022-08-02T14:13:47.684Z,1.00
2022-08-02T14:16:14.626Z,0.90
2022-08-02T14:18:41.545Z,0.70
2022-08-02T14:21:08.644Z,0.70
2022-08-02T14:23:48.993Z,0.82
2022-08-02T14:26:27.125Z,0.50
2022-08-02T14:28:55.518Z,1.00
2022-08-02T14:31:22.776Z,0.60
2022-08-02T14:33:50.098Z,0.73
2022-08-02T14:36:27.111Z,0.60
2022-08-02T14:38:56.472Z,0.60
2022-08-02T14:41:23.725Z,0.65
2022-08-02T14:44:05.958Z,0.60
2022-08-02T14:46:35.827Z,0.70
2022-08-02T14:49:04.070Z,0.80
2022-08-02T14:51:32.293Z,0.63
2022-08-02T14:54:02.806Z,0.95
2022-08-02T14:56:30.737Z,0.60
2022-08-02T14:58:58.023Z,0.73
2022-08-02T15:01:26.082Z,0.80
2022-08-02T15:03:53.616Z,0.70
2022-08-02T15:06:20.670Z,0.85
2022-08-02T15:08:47.741Z,0.80
2022-08-02T15:11:15.060Z,0.80
2022-08-02T15:13:42.729Z,1.02
2022-08-02T15:16:10.057Z,1.33
2022-08-02T15:18:37.122Z,0.70
2022-08-02T15:21:09.737Z,1.10
2022-08-02T15:23:51.235Z,1.00
2022-08-02T15:26:20.768Z,0.70
2022-08-02T15:28:48.487Z,1.00
2022-08-02T15:31:33.357Z,1.13
2022-08-02T15:34:02.514Z,1.00
2022-08-02T15:36:29.862Z,1.10
2022-08-02T15:38:57.670Z,1.00
2022-08-02T15:41:25.154Z,0.63
2022-08-02T15:44:00.826Z,1.08
2022-08-02T15:46:30.775Z,0.90
2022-08-02T15:49:00.015Z,0.80
2022-08-02T15:51:27.304Z,0.80
2022-08-02T15:53:54.255Z,0.70
2022-08-02T15:56:24.027Z,0.95
2022-08-02T15:58:56.869Z,0.85
2022-08-02T16:01:32.109Z,0.80
2022-08-02T16:04:04.758Z,0.85
2022-08-02T16:06:31.831Z,1.00
2022-08-02T16:08:58.735Z,0.70
2022-08-02T16:11:25.675Z,0.80
2022-08-02T16:13:55.563Z,0.82
2022-08-02T16:16:26.041Z,1.48
2022-08-02T16:18:53.950Z,0.70
2022-08-02T16:21:22.886Z,1.23
2022-08-02T16:24:01.891Z,0.82
2022-08-02T16:26:31.754Z,0.70
2022-08-02T16:28:59.920Z,1.02
2022-08-02T16:31:26.927Z,0.80
2022-08-02T16:33:55.897Z,1.25
2022-08-02T16:36:25.151Z,0.80
2022-08-02T16:38:55.799Z,0.90
2022-08-02T16:41:23.165Z,0.80
2022-08-02T16:44:10.829Z,1.27
2022-08-02T16:46:37.988Z,0.73
2022-08-02T16:49:05.154Z,0.90
2022-08-02T16:51:53.369Z,1.42
2022-08-02T16:54:20.290Z,1.08
2022-08-02T16:56:47.243Z,0.73
2022-08-02T16:59:16.186Z,0.90
2022-08-02T17:02:11.717Z,1.20
2022-08-02T17:04:30.253Z,0.55
2022-08-02T17:07:00.119Z,0.75
2022-08-02T17:10:03.639Z,0.70
2022-08-02T17:12:16.964Z,1.05
2022-08-02T17:14:55.166Z,0.90
2022-08-02T17:17:34.059Z,0.90
2022-08-02T17:20:02.433Z,1.13
2022-08-02T17:22:29.538Z,1.00
2022-08-02T17:24:56.684Z,1.00
2022-08-02T17:27:26.752Z,1.00
2022-08-02T17:29:53.952Z,0.98
2022-08-02T17:32:20.906Z,0.98
2022-08-02T17:34:48.876Z,0.95
2022-08-02T17:37:38.687Z,1.25
2022-08-02T17:40:09.609Z,0.85
2022-08-02T17:42:37.191Z,1.00
2022-08-02T17:45:16.157Z,1.60
2022-08-02T17:48:03.854Z,1.08
2022-08-02T17:50:31.365Z,1.00
2022-08-02T17:52:59.110Z,1.10
2022-08-02T17:55:26.271Z,1.40
2022-08-02T17:57:57.115Z,1.20
2022-08-02T18:00:35.141Z,4.10
2022-08-02T18:03:05.464Z,3.13
2022-08-02T18:05:40.415Z,3.78
2022-08-02T18:08:22.881Z,4.88
2022-08-02T18:10:50.817Z,6.05
2022-08-02T18:13:17.710Z,4.65
2022-08-02T18:15:45.434Z,4.30
2022-08-02T18:18:14.547Z,3.22
2022-08-02T18:20:42.048Z,1.95
2022-08-02T18:23:13.431Z,2.15
2022-08-02T18:25:46.717Z,2.22
2022-08-02T18:28:15.141Z,2.13
2022-08-02T18:30:43.173Z,3.25
2022-08-02T18:33:55.551Z,2.95
2022-08-02T18:35:58.151Z,2.95
2022-08-02T18:38:27.823Z,3.33
2022-08-02T18:40:55.301Z,2.92
2022-08-02T18:43:25.370Z,2.80
2022-08-02T18:46:07.081Z,3.40
2022-08-02T18:54:30.678Z,2.33
2022-08-02T18:57:00.924Z,2.60
2022-08-02T18:59:36.704Z,2.13
2022-08-02T19:02:04.565Z,2.30
2022-08-02T19:04:31.469Z,2.15
2022-08-02T19:07:05.391Z,2.20
2022-08-02T19:09:34.802Z,2.83
2022-08-02T19:12:03.609Z,2.72
2022-08-02T19:14:30.847Z,2.60
2022-08-02T19:17:00.432Z,3.33
2022-08-02T19:19:44.251Z,2.53
2022-08-02T19:22:18.126Z,2.42
2022-08-02T19:25:01.512Z,3.10
2022-08-02T19:27:32.581Z,3.10
2022-08-02T19:30:02.305Z,2.10
2022-08-02T19:32:39.624Z,2.22
2022-08-02T19:35:19.365Z,2.20
2022-08-02T19:38:06.256Z,1.55
2022-08-02T19:40:33.704Z,2.03
2022-08-02T19:44:25.301Z,1.95
2022-08-02T19:45:49.810Z,2.03
2022-08-02T19:48:24.399Z,2.05
2022-08-02T19:50:56.603Z,2.53
2022-08-02T19:53:48.094Z,2.55
2022-08-02T19:56:20.501Z,3.13
2022-08-02T19:58:51.552Z,2.38
2022-08-02T20:01:26.967Z,2.22
2022-08-02T20:04:05.352Z,2.08
2022-08-02T20:06:32.601Z,2.15
2022-08-02T20:09:01.216Z,2.42
2022-08-02T20:11:34.778Z,2.60
2022-08-02T20:14:07.145Z,2.25
2022-08-02T20:16:35.432Z,2.40
2022-08-02T20:19:03.832Z,2.15
2022-08-02T20:21:35.803Z,2.13
2022-08-02T20:24:07.746Z,2.17
2022-08-02T20:26:35.790Z,2.10
2022-08-02T20:29:05.328Z,2.03
2022-08-02T20:31:32.853Z,2.33
2022-08-02T20:34:00.240Z,2.15
2022-08-02T20:36:28.154Z,2.00
2022-08-02T20:38:55.995Z,2.22
2022-08-02T20:41:23.901Z,1.65
2022-08-02T20:44:04.370Z,2.40
2022-08-02T20:46:44.013Z,2.60
2022-08-02T20:49:21.703Z,2.50
2022-08-02T20:51:50.335Z,2.20
2022-08-02T20:54:20.790Z,2.72
2022-08-02T20:56:50.634Z,3.03
2022-08-02T20:59:18.123Z,2.80
2022-08-02T21:01:57.240Z,3.33
2022-08-02T21:04:26.527Z,2.90
2022-08-02T21:06:55.785Z,1.95
2022-08-02T21:09:33.060Z,1.80
2022-08-02T21:12:12.535Z,2.35
2022-08-02T21:14:41.555Z,2.10
2022-08-02T21:17:10.549Z,2.33
2022-08-02T21:19:44.396Z,3.25
2022-08-02T21:22:11.410Z,3.20
2022-08-02T21:24:39.290Z,3.15
2022-08-02T21:27:06.273Z,2.90
2022-08-02T21:29:53.560Z,2.42
2022-08-02T21:32:21.636Z,2.60
2022-08-02T21:34:49.455Z,2.05
2022-08-02T21:37:16.907Z,3.05
2022-08-02T21:39:43.884Z,3.55
2022-08-02T21:44:51.296Z,4.10
2022-08-02T21:47:27.662Z,4.00
2022-08-02T21:50:12.762Z,5.70
2022-08-02T21:52:42.262Z,4.50
2022-08-02T21:55:21.201Z,4.32
2022-08-02T21:57:50.995Z,3.80
2022-08-02T22:00:18.005Z,3.53
2022-08-02T22:02:56.104Z,3.30
2022-08-02T22:05:23.248Z,3.75
2022-08-02T22:07:50.540Z,4.07
2022-08-02T22:10:18.100Z,4.35
2022-08-02T22:12:45.091Z,4.97
2022-08-02T22:15:12.084Z,3.80
2022-08-02T22:17:51.656Z,4.07
2022-08-02T22:20:21.289Z,3.22
2022-08-02T22:22:50.588Z,3.58
2022-08-02T22:25:26.827Z,3.70
2022-08-02T22:28:38.685Z,3.92
2022-08-02T22:30:57.449Z,3.50
2022-08-02T22:33:47.322Z,4.03
2022-08-02T22:39:19.246Z,3.58
2022-08-02T22:42:06.508Z,3.83
2022-08-02T22:44:35.338Z,4.18
2022-08-02T22:47:06.986Z,3.20
2022-08-02T22:49:38.003Z,3.78
2022-08-02T22:52:14.267Z,5.00
2022-08-02T22:54:43.404Z,4.70
2022-08-02T22:57:11.558Z,4.20
2022-08-02T22:58:45.656Z,2.90
2022-08-02T22:58:58.464Z,3.03
2022-08-02T22:59:09.520Z,4.22
2022-08-02T22:59:40.642Z,5.45
2022-08-02T23:02:09.200Z,5.10
2022-08-02T23:04:36.800Z,5.15
2022-08-02T23:07:04.168Z,5.03
2022-08-02T23:09:31.059Z,5.22
2022-08-02T23:11:57.971Z,4.43
2022-08-02T23:14:25.063Z,4.78
2022-08-02T23:17:10.377Z,5.80
2022-08-02T23:19:53.062Z,5.95
2022-08-02T23:22:30.080Z,7.75
2022-08-02T23:25:01.593Z,6.72
2022-08-02T23:27:29.516Z,7.03
2022-08-02T23:29:56.699Z,6.53
2022-08-02T23:32:25.484Z,6.75
2022-08-02T23:34:53.687Z,5.50
2022-08-02T23:37:21.117Z,5.90
2022-08-02T23:39:48.635Z,6.05
2022-08-02T23:42:15.902Z,5.28
2022-08-02T23:44:42.987Z,4.95
2022-08-02T23:47:11.078Z,4.40
2022-08-02T23:49:38.374Z,4.97
2022-08-02T23:52:07.803Z,5.05
2022-08-02T23:54:34.930Z,4.60
2022-08-02T23:57:20.805Z,5.15
2022-08-02T23:59:50.072Z,4.47
